sensor_id;sensor_type;location;lat;lon;timestamp;pressure;altitude;pressure_sealevel;temperature;humidity
65800;BME280;52544;48.116;11.660;2023-05-11T00:01:16;95430.50;;;9.02;100.00
65800;BME280;52544;48.116;11.660;2023-05-11T00:03:41;95444.47;;;8.93;100.00
65800;BME280;52544;48.116;11.660;2023-05-11T00:06:07;95441.69;;;8.83;100.00
65800;BME280;52544;48.116;11.660;2023-05-11T00:08:32;95446.50;;;8.89;100.00
65800;BME280;52544;48.116;11.660;2023-05-11T00:10:58;95444.91;;;8.98;100.00
65800;BME280;52544;48.116;11.660;2023-05-11T00:13:27;95433.75;;;8.94;100.00
65800;BME280;52544;48.116;11.660;2023-05-11T00:15:53;95429.09;;;8.98;100.00
65800;BME280;52544;48.116;11.660;2023-05-11T00:18:19;95425.53;;;8.88;100.00
65800;BME280;52544;48.116;11.660;2023-05-11T00:20:44;95426.13;;;8.80;100.00
65800;BME280;52544;48.116;11.660;2023-05-11T00:23:10;95431.50;;;8.90;100.00
65800;BME280;52544;48.116;11.660;2023-05-11T00:25:35;95429.47;;;8.82;100.00
65800;BME280;52544;48.116;11.660;2023-05-11T00:28:01;95430.09;;;8.74;100.00
65800;BME280;52544;48.116;11.660;2023-05-11T00:30:26;95433.91;;;8.82;100.00
65800;BME280;52544;48.116;11.660;2023-05-11T00:32:52;95422.88;;;8.88;100.00
65800;BME280;52544;48.116;11.660;2023-05-11T00:35:17;95431.16;;;8.83;100.00
65800;BME280;52544;48.116;11.660;2023-05-11T00:37:43;95424.09;;;8.84;100.00
65800;BME280;52544;48.116;11.660;2023-05-11T00:40:09;95423.81;;;8.98;100.00
65800;BME280;52544;48.116;11.660;2023-05-11T00:42:35;95418.97;;;9.03;100.00
65800;BME280;52544;48.116;11.660;2023-05-11T00:45:00;95421.69;;;8.81;100.00
65800;BME280;52544;48.116;11.660;2023-05-11T00:47:26;95420.50;;;8.73;100.00
65800;BME280;52544;48.116;11.660;2023-05-11T00:49:52;95418.47;;;8.77;100.00
65800;BME280;52544;48.116;11.660;2023-05-11T00:52:21;95415.97;;;8.75;100.00
65800;BME280;52544;48.116;11.660;2023-05-11T00:54:47;95415.22;;;8.73;100.00
65800;BME280;52544;48.116;11.660;2023-05-11T00:57:13;95420.75;;;8.70;100.00
65800;BME280;52544;48.116;11.660;2023-05-11T00:59:39;95417.59;;;8.88;100.00
65800;BME280;52544;48.116;11.660;2023-05-11T01:02:04;95416.78;;;8.76;100.00
65800;BME280;52544;48.116;11.660;2023-05-11T01:04:31;95412.34;;;8.88;100.00
65800;BME280;52544;48.116;11.660;2023-05-11T01:07:16;95410.25;;;8.91;100.00
65800;BME280;52544;48.116;11.660;2023-05-11T01:15:04;95403.59;;;8.76;100.00
65800;BME280;52544;48.116;11.660;2023-05-11T01:17:43;95415.44;;;8.93;100.00
65800;BME280;52544;48.116;11.660;2023-05-11T01:20:16;95407.88;;;8.88;100.00
65800;BME280;52544;48.116;11.660;2023-05-11T01:26:00;95405.34;;;8.87;100.00
65800;BME280;52544;48.116;11.660;2023-05-11T01:31:21;95399.25;;;8.86;100.00
65800;BME280;52544;48.116;11.660;2023-05-11T01:33:57;95401.56;;;8.68;100.00
65800;BME280;52544;48.116;11.660;2023-05-11T01:36:26;95409.34;;;8.70;100.00
65800;BME280;52544;48.116;11.660;2023-05-11T01:38:53;95402.25;;;8.82;100.00
65800;BME280;52544;48.116;11.660;2023-05-11T01:41:23;95406.69;;;8.81;100.00
65800;BME280;52544;48.116;11.660;2023-05-11T01:43:56;95410.47;;;8.67;100.00
65800;BME280;52544;48.116;11.660;2023-05-11T01:46:25;95400.81;;;8.77;100.00
65800;BME280;52544;48.116;11.660;2023-05-11T01:48:53;95402.50;;;8.79;100.00
65800;BME280;52544;48.116;11.660;2023-05-11T01:51:21;95401.19;;;8.84;100.00
65800;BME280;52544;48.116;11.660;2023-05-11T01:53:49;95402.50;;;8.79;100.00
65800;BME280;52544;48.116;11.660;2023-05-11T01:56:17;95399.63;;;8.70;100.00
65800;BME280;52544;48.116;11.660;2023-05-11T01:58:44;95403.47;;;8.66;100.00
65800;BME280;52544;48.116;11.660;2023-05-11T02:01:10;95405.19;;;8.67;100.00
65800;BME280;52544;48.116;11.660;2023-05-11T02:03:37;95403.00;;;8.72;100.00
65800;BME280;52544;48.116;11.660;2023-05-11T02:06:04;95403.47;;;8.77;100.00
65800;BME280;52544;48.116;11.660;2023-05-11T02:08:31;95394.84;;;8.75;100.00
65800;BME280;52544;48.116;11.660;2023-05-11T02:10:58;95392.16;;;8.87;100.00
65800;BME280;52544;48.116;11.660;2023-05-11T02:13:26;95397.44;;;8.87;100.00
65800;BME280;52544;48.116;11.660;2023-05-11T02:15:55;95393.88;;;8.76;100.00
65800;BME280;52544;48.116;11.660;2023-05-11T02:18:21;95389.47;;;8.66;100.00
65800;BME280;52544;48.116;11.660;2023-05-11T02:20:48;95394.63;;;8.67;100.00
65800;BME280;52544;48.116;11.660;2023-05-11T02:23:15;95394.72;;;8.66;100.00
65800;BME280;52544;48.116;11.660;2023-05-11T02:25:41;95405.41;;;8.64;100.00
65800;BME280;52544;48.116;11.660;2023-05-11T02:28:07;95389.47;;;8.66;100.00
65800;BME280;52544;48.116;11.660;2023-05-11T02:30:54;95395.63;;;8.55;100.00
65800;BME280;52544;48.116;11.660;2023-05-11T02:33:27;95395.09;;;8.61;100.00
65800;BME280;52544;48.116;11.660;2023-05-11T02:35:55;95395.63;;;8.55;100.00
65800;BME280;52544;48.116;11.660;2023-05-11T02:38:24;95387.19;;;8.61;100.00
65800;BME280;52544;48.116;11.660;2023-05-11T02:40:57;95392.97;;;8.55;100.00
65800;BME280;52544;48.116;11.660;2023-05-11T02:43:29;95391.03;;;8.68;100.00
65800;BME280;52544;48.116;11.660;2023-05-11T02:46:01;95389.22;;;8.69;100.00
65800;BME280;52544;48.116;11.660;2023-05-11T02:48:30;95390.09;;;8.58;100.00
65800;BME280;52544;48.116;11.660;2023-05-11T02:50:57;95381.22;;;8.59;100.00
65800;BME280;52544;48.116;11.660;2023-05-11T02:53:27;95385.50;;;8.71;100.00
65800;BME280;52544;48.116;11.660;2023-05-11T02:55:53;95378.31;;;8.62;100.00
65800;BME280;52544;48.116;11.660;2023-05-11T02:58:20;95386.97;;;8.64;100.00
65800;BME280;52544;48.116;11.660;2023-05-11T03:00:45;95390.94;;;8.59;100.00
65800;BME280;52544;48.116;11.660;2023-05-11T03:03:11;95390.44;;;8.54;100.00
65800;BME280;52544;48.116;11.660;2023-05-11T03:05:36;95385.53;;;8.49;100.00
65800;BME280;52544;48.116;11.660;2023-05-11T03:08:02;95385.16;;;8.54;100.00
65800;BME280;52544;48.116;11.660;2023-05-11T03:10:28;95382.81;;;8.50;100.00
65800;BME280;52544;48.116;11.660;2023-05-11T03:12:54;95377.16;;;8.55;100.00
65800;BME280;52544;48.116;11.660;2023-05-11T03:15:21;95380.53;;;8.46;100.00
65800;BME280;52544;48.116;11.660;2023-05-11T03:17:48;95394.19;;;8.51;100.00
65800;BME280;52544;48.116;11.660;2023-05-11T03:20:15;95383.03;;;8.47;100.00
65800;BME280;52544;48.116;11.660;2023-05-11T03:22:41;95380.19;;;8.39;100.00
65800;BME280;52544;48.116;11.660;2023-05-11T03:25:08;95375.63;;;8.41;100.00
65800;BME280;52544;48.116;11.660;2023-05-11T03:27:34;95378.00;;;8.44;100.00
65800;BME280;52544;48.116;11.660;2023-05-11T03:30:02;95374.50;;;8.55;100.00
65800;BME280;52544;48.116;11.660;2023-05-11T03:32:29;95377.16;;;8.44;100.00
65800;BME280;52544;48.116;11.660;2023-05-11T03:34:54;95375.38;;;8.44;100.00
65800;BME280;52544;48.116;11.660;2023-05-11T03:37:20;95371.91;;;8.33;100.00
65800;BME280;52544;48.116;11.660;2023-05-11T03:39:47;95371.91;;;8.33;100.00
65800;BME280;52544;48.116;11.660;2023-05-11T03:42:16;95373.09;;;8.29;100.00
65800;BME280;52544;48.116;11.660;2023-05-11T03:44:45;95360.63;;;8.31;100.00
65800;BME280;52544;48.116;11.660;2023-05-11T03:47:13;95370.47;;;8.40;100.00
65800;BME280;52544;48.116;11.660;2023-05-11T03:49:41;95368.66;;;8.40;100.00
65800;BME280;52544;48.116;11.660;2023-05-11T03:52:07;95370.69;;;8.25;100.00
65800;BME280;52544;48.116;11.660;2023-05-11T03:54:32;95368.44;;;8.21;100.00
65800;BME280;52544;48.116;11.660;2023-05-11T03:56:58;95364.69;;;8.23;100.00
65800;BME280;52544;48.116;11.660;2023-05-11T03:59:23;95363.16;;;8.21;100.00
65800;BME280;52544;48.116;11.660;2023-05-11T04:01:50;95362.19;;;8.11;100.00
65800;BME280;52544;48.116;11.660;2023-05-11T04:04:18;95364.69;;;8.23;100.00
65800;BME280;52544;48.116;11.660;2023-05-11T04:06:43;95355.34;;;8.19;100.00
65800;BME280;52544;48.116;11.660;2023-05-11T04:09:09;95360.03;;;8.27;100.00
65800;BME280;52544;48.116;11.660;2023-05-11T04:11:35;95358.94;;;8.30;100.00
65800;BME280;52544;48.116;11.660;2023-05-11T04:14:01;95362.19;;;8.22;100.00
65800;BME280;52544;48.116;11.660;2023-05-11T04:16:26;95343.88;;;8.20;100.00
65800;BME280;52544;48.116;11.660;2023-05-11T04:18:52;95347.34;;;8.10;100.00
65800;BME280;52544;48.116;11.660;2023-05-11T04:21:17;95353.59;;;8.20;100.00
65800;BME280;52544;48.116;11.660;2023-05-11T04:23:43;95356.41;;;8.28;100.00
65800;BME280;52544;48.116;11.660;2023-05-11T04:26:08;95358.13;;;8.29;100.00
65800;BME280;52544;48.116;11.660;2023-05-11T04:28:34;95356.47;;;8.17;100.00
65800;BME280;52544;48.116;11.660;2023-05-11T04:30:59;95361.00;;;8.15;100.00
65800;BME280;52544;48.116;11.660;2023-05-11T04:33:25;95364.38;;;8.17;100.00
65800;BME280;52544;48.116;11.660;2023-05-11T04:35:51;95367.09;;;8.15;100.00
65800;BME280;52544;48.116;11.660;2023-05-11T04:38:18;95365.94;;;8.08;100.00
65800;BME280;52544;48.116;11.660;2023-05-11T04:40:43;95367.38;;;8.01;100.00
65800;BME280;52544;48.116;11.660;2023-05-11T04:43:09;95370.50;;;7.95;100.00
65800;BME280;52544;48.116;11.660;2023-05-11T04:45:34;95364.38;;;7.94;100.00
65800;BME280;52544;48.116;11.660;2023-05-11T04:48:00;95367.50;;;7.88;100.00
65800;BME280;52544;48.116;11.660;2023-05-11T04:50:26;95365.31;;;7.93;100.00
65800;BME280;52544;48.116;11.660;2023-05-11T04:52:52;95375.41;;;7.99;100.00
65800;BME280;52544;48.116;11.660;2023-05-11T04:55:17;95380.06;;;7.96;100.00
65800;BME280;52544;48.116;11.660;2023-05-11T04:57:42;95371.69;;;7.91;100.00
65800;BME280;52544;48.116;11.660;2023-05-11T05:00:08;95372.75;;;7.88;100.00
65800;BME280;52544;48.116;11.660;2023-05-11T05:02:34;95372.41;;;8.04;100.00
65800;BME280;52544;48.116;11.660;2023-05-11T05:04:59;95366.03;;;8.07;100.00
65800;BME280;52544;48.116;11.660;2023-05-11T05:07:25;95374.19;;;8.04;100.00
65800;BME280;52544;48.116;11.660;2023-05-11T05:09:51;95371.66;;;8.02;100.00
65800;BME280;52544;48.116;11.660;2023-05-11T05:12:16;95373.09;;;8.06;100.00
65800;BME280;52544;48.116;11.660;2023-05-11T05:14:42;95369.03;;;8.02;100.00
65800;BME280;52544;48.116;11.660;2023-05-11T05:17:07;95371.94;;;7.99;100.00
65800;BME280;52544;48.116;11.660;2023-05-11T05:19:32;95369.41;;;8.09;100.00
65800;BME280;52544;48.116;11.660;2023-05-11T05:21:58;95371.44;;;8.05;100.00
65800;BME280;52544;48.116;11.660;2023-05-11T05:24:23;95374.81;;;8.07;100.00
65800;BME280;52544;48.116;11.660;2023-05-11T05:26:49;95369.78;;;8.04;100.00
65800;BME280;52544;48.116;11.660;2023-05-11T05:29:14;95369.53;;;7.96;100.00
65800;BME280;52544;48.116;11.660;2023-05-11T05:31:40;95373.84;;;8.08;100.00
65800;BME280;52544;48.116;11.660;2023-05-11T05:34:05;95376.94;;;8.02;100.00
65800;BME280;52544;48.116;11.660;2023-05-11T05:36:30;95381.28;;;8.03;100.00
65800;BME280;52544;48.116;11.660;2023-05-11T05:38:56;95390.13;;;8.02;100.00
65800;BME280;52544;48.116;11.660;2023-05-11T05:41:22;95390.38;;;7.99;100.00
65800;BME280;52544;48.116;11.660;2023-05-11T05:43:48;95387.34;;;8.15;100.00
65800;BME280;52544;48.116;11.660;2023-05-11T05:46:14;95378.38;;;8.06;100.00
65800;BME280;52544;48.116;11.660;2023-05-11T05:48:39;95394.22;;;7.95;100.00
65800;BME280;52544;48.116;11.660;2023-05-11T05:51:05;95389.78;;;7.95;100.00
65800;BME280;52544;48.116;11.660;2023-05-11T05:53:31;95388.69;;;7.87;100.00
65800;BME280;52544;48.116;11.660;2023-05-11T05:55:56;95387.75;;;7.99;100.00
65800;BME280;52544;48.116;11.660;2023-05-11T05:58:22;95390.25;;;8.00;100.00
65800;BME280;52544;48.116;11.660;2023-05-11T06:00:47;95396.00;;;7.94;100.00
65800;BME280;52544;48.116;11.660;2023-05-11T06:03:13;95387.00;;;7.97;100.00
65800;BME280;52544;48.116;11.660;2023-05-11T06:05:38;95392.66;;;8.04;100.00
65800;BME280;52544;48.116;11.660;2023-05-11T06:08:04;95390.13;;;8.02;100.00
65800;BME280;52544;48.116;11.660;2023-05-11T06:10:29;95392.28;;;8.08;100.00
65800;BME280;52544;48.116;11.660;2023-05-11T06:12:55;95393.59;;;7.91;100.00
65800;BME280;52544;48.116;11.660;2023-05-11T06:15:20;95391.56;;;8.06;100.00
65800;BME280;52544;48.116;11.660;2023-05-11T06:17:47;95398.28;;;7.99;100.00
65800;BME280;52544;48.116;11.660;2023-05-11T06:20:12;95397.41;;;7.98;100.00
65800;BME280;52544;48.116;11.660;2023-05-11T06:22:38;95399.94;;;8.00;100.00
65800;BME280;52544;48.116;11.660;2023-05-11T06:25:04;95403.16;;;8.15;100.00
65800;BME280;52544;48.116;11.660;2023-05-11T06:27:30;95403.78;;;7.96;100.00
65800;BME280;52544;48.116;11.660;2023-05-11T06:29:55;95405.22;;;8.00;100.00
65800;BME280;52544;48.116;11.660;2023-05-11T06:32:21;95398.84;;;8.02;100.00
65800;BME280;52544;48.116;11.660;2023-05-11T06:34:46;95404.25;;;8.01;100.00
65800;BME280;52544;48.116;11.660;2023-05-11T06:37:11;95399.00;;;8.12;100.00
65800;BME280;52544;48.116;11.660;2023-05-11T06:39:44;95407.25;;;7.96;100.00
65800;BME280;52544;48.116;11.660;2023-05-11T06:42:09;95403.06;;;8.05;100.00
65800;BME280;52544;48.116;11.660;2023-05-11T06:44:35;95403.06;;;8.05;100.00
65800;BME280;52544;48.116;11.660;2023-05-11T06:47:00;95393.25;;;8.07;100.00
65800;BME280;52544;48.116;11.660;2023-05-11T06:49:26;95393.81;;;8.11;100.00
65800;BME280;52544;48.116;11.660;2023-05-11T06:51:51;95396.13;;;8.04;100.00
65800;BME280;52544;48.116;11.660;2023-05-11T06:54:16;95395.41;;;8.13;100.00
65800;BME280;52544;48.116;11.660;2023-05-11T06:56:42;95404.63;;;7.96;100.00
65800;BME280;52544;48.116;11.660;2023-05-11T06:59:07;95395.66;;;7.99;100.00
65800;BME280;52544;48.116;11.660;2023-05-11T07:01:33;95402.13;;;7.95;100.00
65800;BME280;52544;48.116;11.660;2023-05-11T07:03:58;95400.44;;;8.05;100.00
65800;BME280;52544;48.116;11.660;2023-05-11T07:06:23;95400.28;;;8.07;100.00
65800;BME280;52544;48.116;11.660;2023-05-11T07:08:49;95391.44;;;8.08;100.00
65800;BME280;52544;48.116;11.660;2023-05-11T07:11:14;95399.00;;;8.12;100.00
65800;BME280;52544;48.116;11.660;2023-05-11T07:13:40;95400.81;;;8.12;100.00
65800;BME280;52544;48.116;11.660;2023-05-11T07:16:06;95402.34;;;8.25;100.00
65800;BME280;52544;48.116;11.660;2023-05-11T07:18:32;95392.16;;;8.21;100.00
65800;BME280;52544;48.116;11.660;2023-05-11T07:20:57;95399.84;;;8.13;100.00
65800;BME280;52544;48.116;11.660;2023-05-11T07:23:22;95399.94;;;8.11;100.00
65800;BME280;52544;48.116;11.660;2023-05-11T07:25:48;95398.53;;;8.07;100.00
65800;BME280;52544;48.116;11.660;2023-05-11T07:28:13;95402.34;;;8.14;100.00
65800;BME280;52544;48.116;11.660;2023-05-11T07:30:39;95395.63;;;8.10;100.00
65800;BME280;52544;48.116;11.660;2023-05-11T07:33:05;95403.53;;;8.10;100.00
65800;BME280;52544;48.116;11.660;2023-05-11T07:35:30;95396.69;;;8.19;100.00
65800;BME280;52544;48.116;11.660;2023-05-11T07:37:56;95393.34;;;8.17;100.00
65800;BME280;52544;48.116;11.660;2023-05-11T07:40:21;95392.63;;;8.15;100.00
65800;BME280;52544;48.116;11.660;2023-05-11T07:42:47;95398.97;;;8.23;100.00
65800;BME280;52544;48.116;11.660;2023-05-11T07:45:12;95397.31;;;8.22;100.00
65800;BME280;52544;48.116;11.660;2023-05-11T07:47:38;95395.88;;;8.30;100.00
65800;BME280;52544;48.116;11.660;2023-05-11T07:50:03;95402.94;;;8.40;100.00
65800;BME280;52544;48.116;11.660;2023-05-11T07:52:29;95405.06;;;8.35;100.00
65800;BME280;52544;48.116;11.660;2023-05-11T07:54:54;95404.50;;;8.43;100.00
65800;BME280;52544;48.116;11.660;2023-05-11T07:57:20;95402.72;;;8.43;100.00
65800;BME280;52544;48.116;11.660;2023-05-11T07:59:46;95403.06;;;8.39;100.00
65800;BME280;52544;48.116;11.660;2023-05-11T08:02:11;95396.19;;;8.36;100.00
65800;BME280;52544;48.116;11.660;2023-05-11T08:04:37;95399.84;;;8.46;100.00
65800;BME280;52544;48.116;11.660;2023-05-11T08:07:02;95400.66;;;8.47;100.00
65800;BME280;52544;48.116;11.660;2023-05-11T08:09:28;95400.06;;;8.55;100.00
65800;BME280;52544;48.116;11.660;2023-05-11T08:11:54;95396.69;;;8.64;100.00
65800;BME280;52544;48.116;11.660;2023-05-11T08:14:21;95395.78;;;8.74;100.00
65800;BME280;52544;48.116;11.660;2023-05-11T08:16:47;95395.31;;;8.81;100.00
65800;BME280;52544;48.116;11.660;2023-05-11T08:19:13;95395.09;;;8.72;100.00
65800;BME280;52544;48.116;11.660;2023-05-11T08:21:39;95391.25;;;8.65;100.00
65800;BME280;52544;48.116;11.660;2023-05-11T08:24:05;95385.00;;;8.77;100.00
65800;BME280;52544;48.116;11.660;2023-05-11T08:26:30;95379.25;;;8.84;100.00
65800;BME280;52544;48.116;11.660;2023-05-11T08:28:57;95389.31;;;8.79;100.00
65800;BME280;52544;48.116;11.660;2023-05-11T08:31:22;95388.69;;;8.86;100.00
65800;BME280;52544;48.116;11.660;2023-05-11T08:33:47;95381.97;;;8.82;100.00
65800;BME280;52544;48.116;11.660;2023-05-11T08:36:13;95378.75;;;8.79;100.00
65800;BME280;52544;48.116;11.660;2023-05-11T08:38:39;95383.09;;;8.80;100.00
65800;BME280;52544;48.116;11.660;2023-05-11T08:41:05;95376.31;;;8.87;100.00
65800;BME280;52544;48.116;11.660;2023-05-11T08:43:33;95377.97;;;8.99;100.00
65800;BME280;52544;48.116;11.660;2023-05-11T08:46:03;95381.81;;;8.95;100.00
65800;BME280;52544;48.116;11.660;2023-05-11T08:48:31;95382.34;;;8.89;100.00
65800;BME280;52544;48.116;11.660;2023-05-11T08:50:58;95388.94;;;8.83;100.00
65800;BME280;52544;48.116;11.660;2023-05-11T08:53:23;95385.94;;;8.88;100.00
65800;BME280;52544;48.116;11.660;2023-05-11T08:55:49;95389.53;;;8.87;100.00
65800;BME280;52544;48.116;11.660;2023-05-11T08:58:16;95385.94;;;8.88;100.00
65800;BME280;52544;48.116;11.660;2023-05-11T09:00:46;95394.91;;;8.96;100.00
65800;BME280;52544;48.116;11.660;2023-05-11T09:03:13;95396.69;;;8.96;100.00
65800;BME280;52544;48.116;11.660;2023-05-11T09:05:40;95391.97;;;9.11;100.00
65800;BME280;52544;48.116;11.660;2023-05-11T09:08:07;95396.41;;;9.10;100.00
65800;BME280;52544;48.116;11.660;2023-05-11T09:10:35;95391.97;;;9.11;100.00
65800;BME280;52544;48.116;11.660;2023-05-11T09:13:01;95397.16;;;9.01;100.00
65800;BME280;52544;48.116;11.660;2023-05-11T09:15:27;95392.09;;;9.09;100.00
65800;BME280;52544;48.116;11.660;2023-05-11T09:17:52;95390.88;;;9.13;100.00
65800;BME280;52544;48.116;11.660;2023-05-11T09:20:26;95389.34;;;8.99;100.00
65800;BME280;52544;48.116;11.660;2023-05-11T09:22:53;95397.16;;;9.01;100.00
65800;BME280;52544;48.116;11.660;2023-05-11T09:25:19;95397.88;;;9.03;100.00
65800;BME280;52544;48.116;11.660;2023-05-11T09:27:46;95390.69;;;8.94;100.00
65800;BME280;52544;48.116;11.660;2023-05-11T09:30:21;95392.72;;;9.01;100.00
65800;BME280;52544;48.116;11.660;2023-05-11T09:32:50;95388.75;;;8.96;100.00
65800;BME280;52544;48.116;11.660;2023-05-11T09:37:56;95389.38;;;9.20;100.00
65800;BME280;52544;48.116;11.660;2023-05-11T09:40:22;95385.84;;;9.10;100.00
65800;BME280;52544;48.116;11.660;2023-05-11T09:42:47;95386.09;;;9.07;100.00
65800;BME280;52544;48.116;11.660;2023-05-11T09:45:13;95389.94;;;9.03;100.00
65800;BME280;52544;48.116;11.660;2023-05-11T09:47:38;95383.91;;;9.12;100.00
65800;BME280;52544;48.116;11.660;2023-05-11T09:50:16;95378.75;;;9.11;100.00
65800;BME280;52544;48.116;11.660;2023-05-11T09:52:51;95382.00;;;9.14;100.00
65800;BME280;52544;48.116;11.660;2023-05-11T09:55:16;95377.84;;;9.21;100.00
65800;BME280;52544;48.116;11.660;2023-05-11T09:57:52;95385.66;;;9.23;100.00
65800;BME280;52544;48.116;11.660;2023-05-11T10:00:17;95381.72;;;9.17;100.00
65800;BME280;52544;48.116;11.660;2023-05-11T10:02:42;95382.06;;;9.24;100.00
65800;BME280;52544;48.116;11.660;2023-05-11T10:05:11;95380.03;;;9.16;100.00
65800;BME280;52544;48.116;11.660;2023-05-11T10:07:37;95383.41;;;9.18;100.00
65800;BME280;52544;48.116;11.660;2023-05-11T10:10:05;95386.81;;;9.30;100.00
65800;BME280;52544;48.116;11.660;2023-05-11T10:12:31;95384.56;;;9.25;100.00
65800;BME280;52544;48.116;11.660;2023-05-11T10:15:05;95387.00;;;9.17;100.00
65800;BME280;52544;48.116;11.660;2023-05-11T10:17:32;95384.56;;;9.25;100.00
65800;BME280;52544;48.116;11.660;2023-05-11T10:19:59;95382.88;;;9.24;100.00
65800;BME280;52544;48.116;11.660;2023-05-11T10:22:26;95385.31;;;9.16;100.00
65800;BME280;52544;48.116;11.660;2023-05-11T10:24:52;95377.34;;;9.27;100.00
65800;BME280;52544;48.116;11.660;2023-05-11T10:27:19;95383.91;;;9.33;100.00
65800;BME280;52544;48.116;11.660;2023-05-11T10:29:46;95378.34;;;9.26;100.00
65800;BME280;52544;48.116;11.660;2023-05-11T10:32:13;95378.06;;;9.30;100.00
65800;BME280;52544;48.116;11.660;2023-05-11T10:34:40;95383.41;;;9.18;100.00
65800;BME280;52544;48.116;11.660;2023-05-11T10:37:07;95374.97;;;9.24;100.00
65800;BME280;52544;48.116;11.660;2023-05-11T10:39:36;95383.63;;;9.26;100.00
65800;BME280;52544;48.116;11.660;2023-05-11T10:44:59;95373.88;;;9.27;100.00
65800;BME280;52544;48.116;11.660;2023-05-11T10:58:41;95370.59;;;9.35;100.00
65800;BME280;52544;48.116;11.660;2023-05-11T11:03:58;95372.47;;;9.44;100.00
65800;BME280;52544;48.116;11.660;2023-05-11T11:06:24;95366.91;;;9.47;100.00
65800;BME280;52544;48.116;11.660;2023-05-11T11:09:13;95372.53;;;9.54;100.00
65800;BME280;52544;48.116;11.660;2023-05-11T11:11:45;95371.63;;;9.43;100.00
65800;BME280;52544;48.116;11.660;2023-05-11T11:14:12;95370.84;;;9.52;100.00
65800;BME280;52544;48.116;11.660;2023-05-11T11:16:39;95368.91;;;9.55;100.00
65800;BME280;52544;48.116;11.660;2023-05-11T11:21:52;95367.44;;;9.62;100.00
65800;BME280;52544;48.116;11.660;2023-05-11T11:27:06;95368.25;;;9.62;100.00
65800;BME280;52544;48.116;11.660;2023-05-11T11:29:36;95368.06;;;9.54;100.00
65800;BME280;52544;48.116;11.660;2023-05-11T11:34:46;95360.28;;;9.52;100.00
65800;BME280;52544;48.116;11.660;2023-05-11T11:37:13;95363.50;;;9.56;100.00
65800;BME280;52544;48.116;11.660;2023-05-11T11:42:12;95361.25;;;9.51;100.00
65800;BME280;52544;48.116;11.660;2023-05-11T11:44:40;95357.50;;;9.54;100.00
65800;BME280;52544;48.116;11.660;2023-05-11T11:49:41;95369.44;;;9.48;100.00
65800;BME280;52544;48.116;11.660;2023-05-11T11:52:31;95364.47;;;9.55;100.00
65800;BME280;52544;48.116;11.660;2023-05-11T11:54:58;95365.00;;;9.49;100.00
65800;BME280;52544;48.116;11.660;2023-05-11T12:00:03;95362.53;;;9.57;100.00
65800;BME280;52544;48.116;11.660;2023-05-11T12:02:31;95357.75;;;9.51;100.00
65800;BME280;52544;48.116;11.660;2023-05-11T12:05:00;95364.75;;;9.52;100.00
65800;BME280;52544;48.116;11.660;2023-05-11T12:07:32;95363.91;;;9.51;100.00
65800;BME280;52544;48.116;11.660;2023-05-11T12:10:17;95369.06;;;9.53;100.00
65800;BME280;52544;48.116;11.660;2023-05-11T12:12:44;95362.75;;;9.44;100.00
65800;BME280;52544;48.116;11.660;2023-05-11T12:15:27;95364.47;;;9.55;100.00
65800;BME280;52544;48.116;11.660;2023-05-11T12:17:54;95358.34;;;9.55;100.00
65800;BME280;52544;48.116;11.660;2023-05-11T12:20:21;95365.25;;;9.46;100.00
65800;BME280;52544;48.116;11.660;2023-05-11T12:22:47;95356.34;;;9.47;100.00
65800;BME280;52544;48.116;11.660;2023-05-11T12:25:17;95352.47;;;9.51;100.00
65800;BME280;52544;48.116;11.660;2023-05-11T12:30:25;95353.06;;;9.55;100.00
65800;BME280;52544;48.116;11.660;2023-05-11T12:32:51;95357.22;;;9.47;100.00
65800;BME280;52544;48.116;11.660;2023-05-11T12:35:22;95351.34;;;9.44;100.00
65800;BME280;52544;48.116;11.660;2023-05-11T12:37:48;95354.88;;;9.54;100.00
65800;BME280;52544;48.116;11.660;2023-05-11T12:40:14;95352.75;;;9.48;100.00
65800;BME280;52544;48.116;11.660;2023-05-11T12:42:49;95348.81;;;9.42;100.00
65800;BME280;52544;48.116;11.660;2023-05-11T12:45:14;95349.59;;;9.33;100.00
65800;BME280;52544;48.116;11.660;2023-05-11T12:47:40;95347.53;;;9.37;100.00
65800;BME280;52544;48.116;11.660;2023-05-11T12:50:05;95346.06;;;9.44;100.00
65800;BME280;52544;48.116;11.660;2023-05-11T12:52:31;95337.75;;;9.48;100.00
65800;BME280;52544;48.116;11.660;2023-05-11T12:54:57;95353.16;;;9.43;100.00
65800;BME280;52544;48.116;11.660;2023-05-11T12:57:28;95348.88;;;9.52;100.00
65800;BME280;52544;48.116;11.660;2023-05-11T13:02:34;95340.78;;;9.44;100.00
65800;BME280;52544;48.116;11.660;2023-05-11T13:05:09;95344.00;;;9.47;100.00
65800;BME280;52544;48.116;11.660;2023-05-11T13:07:36;95341.22;;;9.49;100.00
65800;BME280;52544;48.116;11.660;2023-05-11T13:10:01;95343.66;;;9.41;100.00
65800;BME280;52544;48.116;11.660;2023-05-11T13:12:27;95336.38;;;9.33;100.00
65800;BME280;52544;48.116;11.660;2023-05-11T13:15:07;95333.75;;;9.33;100.00
65800;BME280;52544;48.116;11.660;2023-05-11T13:17:34;95331.09;;;9.33;100.00
65800;BME280;52544;48.116;11.660;2023-05-11T13:22:51;95329.38;;;9.43;100.00
65800;BME280;52544;48.116;11.660;2023-05-11T13:25:26;95319.75;;;9.42;100.00
65800;BME280;52544;48.116;11.660;2023-05-11T13:27:51;95332.78;;;9.34;100.00
65800;BME280;52544;48.116;11.660;2023-05-11T13:30:17;95327.44;;;9.24;100.00
65800;BME280;52544;48.116;11.660;2023-05-11T13:32:42;95331.31;;;9.20;100.00
65800;BME280;52544;48.116;11.660;2023-05-11T13:35:08;95332.72;;;9.24;100.00
65800;BME280;52544;48.116;11.660;2023-05-11T13:37:33;95321.66;;;9.31;100.00
65800;BME280;52544;48.116;11.660;2023-05-11T13:39:59;95315.41;;;9.32;100.00
65800;BME280;52544;48.116;11.660;2023-05-11T13:42:25;95324.00;;;9.34;100.00
65800;BME280;52544;48.116;11.660;2023-05-11T13:44:50;95323.56;;;9.29;100.00